Time;durP1;ratioP1;P1;durP2;ratioP2;P2;SDS_P1;SDS_P2;PMS_P1;PMS_P2;Temp;Humidity;BMP_temperature;BMP_pressure;BME280_temperature;BME280_humidity;BME280_pressure;Samples;Min_cycle;Max_cycle;Signal;HPM_P1;HPM_P2
2021/01/01 00:01:10;;;;;;;1.20;0.70;;;8.70;99.90;;;;;;5173737;23;20221;-96
2021/01/01 00:03:42;;;;;;;7.17;0.90;;;8.70;99.90;;;;;;5337787;23;20311;-91
2021/01/01 00:06:14;;;;;;;2.30;0.80;;;8.80;99.90;;;;;;4972313;28;20302;-96
2021/01/01 00:08:49;;;;;;;3.83;0.80;;;8.70;99.90;;;;;;4974683;28;20252;-96
2021/01/01 00:13:55;;;;;;;2.93;1.17;;;8.80;99.90;;;;;;5598739;23;20280;-96
2021/01/01 00:16:27;;;;;;;5.90;1.30;;;8.80;99.90;;;;;;4968019;28;20445;-96
2021/01/01 00:18:57;;;;;;;3.33;0.90;;;8.70;99.90;;;;;;4966249;28;20231;-96
2021/01/01 00:21:31;;;;;;;3.13;0.90;;;8.70;99.90;;;;;;4953358;28;20207;-95
2021/01/01 00:24:02;;;;;;;4.50;0.97;;;8.70;99.90;;;;;;5101459;23;20238;-95
2021/01/01 00:26:33;;;;;;;4.03;1.00;;;8.70;99.90;;;;;;4975185;28;20214;-95
2021/01/01 00:29:06;;;;;;;2.97;0.90;;;8.70;99.90;;;;;;4974516;28;20233;-94
2021/01/01 00:34:13;;;;;;;6.93;1.70;;;8.70;99.90;;;;;;5119167;23;20267;-94
2021/01/01 00:36:44;;;;;;;3.27;0.97;;;8.70;99.90;;;;;;4973266;28;20208;-94
2021/01/01 00:39:18;;;;;;;2.57;0.90;;;8.70;99.90;;;;;;4984986;28;20198;-94
2021/01/01 00:41:49;;;;;;;3.63;1.20;;;8.70;99.90;;;;;;4968855;28;20218;-93
2021/01/01 00:44:22;;;;;;;1.40;0.83;;;8.70;99.90;;;;;;4966373;28;20216;-95
2021/01/01 00:46:55;;;;;;;3.47;1.00;;;8.70;99.90;;;;;;4966460;28;20309;-94
2021/01/01 00:49:29;;;;;;;3.97;1.20;;;8.60;99.90;;;;;;5021710;23;20262;-96
2021/01/01 00:52:05;;;;;;;4.30;1.10;;;8.70;99.90;;;;;;4981069;28;20326;-96
2021/01/01 00:54:37;;;;;;;1.50;0.70;;;8.70;99.90;;;;;;4957505;28;20262;-94
2021/01/01 00:57:07;;;;;;;4.40;1.10;;;8.60;99.90;;;;;;4958856;29;20218;-96
2021/01/01 00:59:40;;;;;;;6.53;1.27;;;8.60;99.90;;;;;;4964125;28;20204;-96
2021/01/01 01:02:11;;;;;;;1.80;1.00;;;8.60;99.90;;;;;;4963505;28;20200;-96
2021/01/01 01:07:45;;;;;;;3.90;0.90;;;8.70;99.90;;;;;;4968527;28;20260;-96
2021/01/01 01:10:16;;;;;;;3.33;1.10;;;8.70;99.90;;;;;;4968946;28;20211;-96
2021/01/01 01:12:48;;;;;;;2.17;0.80;;;8.60;99.90;;;;;;4965910;28;20196;-95
2021/01/01 01:36:47;;;;;;;2.57;1.10;;;8.70;99.90;;;;;;5119177;23;20562;-96
2021/01/01 01:47:37;;;;;;;3.37;1.03;;;8.60;99.90;;;;;;5421852;23;20231;-95
2021/01/01 01:50:10;;;;;;;2.73;0.80;;;8.60;99.90;;;;;;4979084;28;20198;-95
2021/01/01 01:53:04;;;;;;;2.07;0.70;;;8.60;99.90;;;;;;4960315;28;20189;-96
2021/01/01 01:55:35;;;;;;;3.87;1.00;;;8.60;99.90;;;;;;4960071;28;20285;-96
2021/01/01 01:58:06;;;;;;;2.90;1.07;;;8.50;99.90;;;;;;4973450;28;20359;-96
2021/01/01 02:00:53;;;;;;;3.13;0.90;;;8.50;99.90;;;;;;4956589;28;20221;-96
2021/01/01 02:03:24;;;;;;;1.47;0.80;;;8.50;99.90;;;;;;4943460;28;20270;-96
2021/01/01 02:05:56;;;;;;;1.53;0.83;;;8.50;99.90;;;;;;5458209;23;20235;-96
2021/01/01 02:11:11;;;;;;;2.60;1.17;;;8.40;99.90;;;;;;5078826;23;20234;-96
2021/01/01 02:13:42;;;;;;;4.30;0.87;;;8.40;99.90;;;;;;4968730;28;20231;-96
2021/01/01 02:16:15;;;;;;;3.07;0.83;;;8.30;99.90;;;;;;4970608;28;20203;-96
2021/01/01 02:18:52;;;;;;;1.63;0.80;;;8.30;99.90;;;;;;4969790;28;20281;-96
2021/01/01 02:21:27;;;;;;;1.00;0.70;;;8.30;99.90;;;;;;5059869;23;20298;-96
2021/01/01 02:23:59;;;;;;;1.87;0.83;;;8.30;99.90;;;;;;4970890;28;20193;-96
2021/01/01 02:26:34;;;;;;;2.20;1.00;;;8.30;99.90;;;;;;4970509;28;20217;-96
2021/01/01 02:29:05;;;;;;;1.57;1.00;;;8.30;99.90;;;;;;4971999;28;20203;-96
2021/01/01 02:31:37;;;;;;;2.10;1.03;;;8.30;99.90;;;;;;4969111;28;20191;-96
2021/01/01 02:34:10;;;;;;;3.30;1.47;;;8.30;99.90;;;;;;4972837;28;20243;-95
2021/01/01 02:36:40;;;;;;;2.80;1.30;;;8.30;99.90;;;;;;4966973;28;20196;-95
2021/01/01 02:39:15;;;;;;;3.10;1.30;;;8.40;99.90;;;;;;4958940;29;20222;-95
2021/01/01 02:41:46;;;;;;;2.87;1.37;;;8.40;99.90;;;;;;4963693;28;20210;-96
2021/01/01 02:44:19;;;;;;;2.40;1.10;;;8.40;99.90;;;;;;4967905;28;20520;-96
2021/01/01 02:46:50;;;;;;;2.93;1.33;;;8.40;99.90;;;;;;4964152;28;20228;-96
2021/01/01 02:49:23;;;;;;;1.93;1.00;;;8.40;99.90;;;;;;4964695;28;20255;-96
2021/01/01 02:51:53;;;;;;;3.27;1.40;;;8.40;99.90;;;;;;4965461;28;20195;-96
2021/01/01 03:02:25;;;;;;;1.47;1.27;;;8.40;99.90;;;;;;5098501;23;20313;-96
2021/01/01 03:07:47;;;;;;;1.50;1.23;;;8.40;99.90;;;;;;5710385;23;20249;-95
2021/01/01 03:10:19;;;;;;;1.70;1.43;;;8.50;99.90;;;;;;5313072;23;20230;-95
2021/01/01 03:12:51;;;;;;;4.00;1.90;;;8.50;99.90;;;;;;4974793;28;20247;-96
2021/01/01 03:15:23;;;;;;;4.03;1.70;;;8.50;99.90;;;;;;4977294;28;20185;-95
2021/01/01 03:17:55;;;;;;;2.37;1.63;;;8.40;99.90;;;;;;4975900;28;20201;-96
2021/01/01 03:20:27;;;;;;;1.50;1.30;;;8.50;99.90;;;;;;4967737;28;20185;-96
2021/01/01 03:22:58;;;;;;;2.73;1.80;;;8.50;99.90;;;;;;4966236;28;20235;-96
2021/01/01 03:25:31;;;;;;;2.73;1.60;;;8.50;99.90;;;;;;4974416;28;20217;-95
2021/01/01 03:28:05;;;;;;;1.93;1.53;;;8.50;99.90;;;;;;4974657;28;20189;-94
2021/01/01 03:30:36;;;;;;;2.20;1.30;;;8.50;99.90;;;;;;4975755;28;20200;-96
2021/01/01 03:33:10;;;;;;;3.97;1.57;;;8.50;99.90;;;;;;4970534;28;20271;-96
2021/01/01 03:35:41;;;;;;;3.40;1.53;;;8.50;99.90;;;;;;4983997;28;20204;-93
2021/01/01 03:38:17;;;;;;;3.63;1.73;;;8.50;99.90;;;;;;4977564;28;20300;-95
2021/01/01 03:40:49;;;;;;;1.80;1.50;;;8.50;99.90;;;;;;4977932;28;20239;-94
2021/01/01 03:43:20;;;;;;;2.57;1.67;;;8.50;99.90;;;;;;4973784;28;20202;-94
2021/01/01 03:45:51;;;;;;;2.47;2.00;;;8.50;99.90;;;;;;4971303;28;20233;-95
2021/01/01 03:48:24;;;;;;;2.93;1.70;;;8.50;99.90;;;;;;4970059;28;20187;-95
2021/01/01 03:50:55;;;;;;;3.57;1.90;;;8.50;99.90;;;;;;4969421;28;20204;-96
2021/01/01 03:53:26;;;;;;;3.30;1.63;;;8.50;99.90;;;;;;4973109;28;20203;-95
2021/01/01 03:55:58;;;;;;;2.73;1.97;;;8.50;99.90;;;;;;4961763;28;20262;-96
2021/01/01 03:58:29;;;;;;;2.50;2.10;;;8.50;99.90;;;;;;4970124;28;20267;-95
2021/01/01 04:01:00;;;;;;;2.17;1.77;;;8.50;99.90;;;;;;4964294;28;20210;-95
2021/01/01 04:03:33;;;;;;;4.40;1.77;;;8.50;99.90;;;;;;4969985;28;20190;-95
2021/01/01 04:06:04;;;;;;;2.73;1.80;;;8.50;99.90;;;;;;4955876;28;20248;-95
2021/01/01 04:08:36;;;;;;;2.10;1.83;;;8.50;99.90;;;;;;4971613;28;20197;-94
2021/01/01 04:11:07;;;;;;;2.80;2.00;;;8.50;99.90;;;;;;4970616;28;20245;-94
2021/01/01 04:13:38;;;;;;;3.87;2.13;;;8.50;99.90;;;;;;4978465;28;20283;-93
2021/01/01 04:16:11;;;;;;;3.43;1.80;;;8.50;99.90;;;;;;4944695;29;20233;-95
2021/01/01 04:18:43;;;;;;;2.00;1.57;;;8.50;99.90;;;;;;4948878;29;20211;-92
2021/01/01 04:21:16;;;;;;;4.10;1.97;;;8.50;99.90;;;;;;4952913;29;20191;-93
2021/01/01 04:23:46;;;;;;;3.30;1.73;;;8.50;99.90;;;;;;4950501;29;20195;-94
2021/01/01 04:26:17;;;;;;;2.60;2.00;;;8.50;99.90;;;;;;4955203;28;20227;-93
2021/01/01 04:28:48;;;;;;;4.33;1.93;;;8.50;99.90;;;;;;4942652;29;20298;-95
2021/01/01 04:31:19;;;;;;;2.07;1.80;;;8.40;99.90;;;;;;4957442;28;20318;-94
2021/01/01 04:33:51;;;;;;;2.93;2.17;;;8.40;99.90;;;;;;4954770;29;20200;-94
2021/01/01 04:36:22;;;;;;;3.03;1.93;;;8.40;99.90;;;;;;4953714;28;20207;-95
2021/01/01 04:38:53;;;;;;;2.43;1.90;;;8.40;99.90;;;;;;4956134;28;20203;-94
2021/01/01 04:41:24;;;;;;;3.77;2.10;;;8.40;99.90;;;;;;4950057;29;20240;-94
2021/01/01 04:43:55;;;;;;;2.43;1.97;;;8.40;99.90;;;;;;4948440;29;20228;-93
2021/01/01 04:46:27;;;;;;;2.20;1.90;;;8.40;99.90;;;;;;4954193;28;20328;-95
2021/01/01 04:52:33;;;;;;;5.20;2.63;;;8.40;99.90;;;;;;5294962;23;20224;-94
2021/01/01 04:55:04;;;;;;;3.57;2.70;;;8.40;99.90;;;;;;4951887;28;20199;-96
2021/01/01 04:57:36;;;;;;;7.07;3.30;;;8.40;99.90;;;;;;4951083;29;20242;-96
2021/01/01 05:00:08;;;;;;;6.23;3.07;;;8.40;99.90;;;;;;5153772;23;20258;-96
2021/01/01 05:02:42;;;;;;;4.87;2.80;;;8.30;99.90;;;;;;5088560;23;20258;-95
2021/01/01 05:05:15;;;;;;;3.90;2.90;;;8.30;99.90;;;;;;4969034;28;20202;-96
2021/01/01 05:07:47;;;;;;;4.03;3.20;;;8.30;99.90;;;;;;4973408;28;20417;-96
2021/01/01 05:10:20;;;;;;;5.43;3.10;;;8.40;99.90;;;;;;4975104;28;20188;-96
2021/01/01 05:12:52;;;;;;;5.90;3.53;;;8.30;99.90;;;;;;4977930;28;20204;-96
2021/01/01 05:15:35;;;;;;;4.33;3.10;;;8.30;99.90;;;;;;5247505;23;20246;-96
2021/01/01 05:18:19;;;;;;;4.37;3.27;;;8.30;99.90;;;;;;4961819;28;20239;-95
2021/01/01 05:20:52;;;;;;;5.13;3.07;;;8.30;99.90;;;;;;5213394;23;20270;-95
2021/01/01 05:23:25;;;;;;;4.37;3.10;;;8.30;99.90;;;;;;4981436;28;20224;-96
2021/01/01 05:44:49;;;;;;;6.97;3.37;;;8.30;99.90;;;;;;4936743;29;20234;-96
2021/01/01 05:47:22;;;;;;;7.17;3.60;;;8.30;99.90;;;;;;4941462;28;20232;-95
2021/01/01 05:49:53;;;;;;;7.80;3.90;;;8.30;99.90;;;;;;4942193;29;20218;-95
2021/01/01 05:52:25;;;;;;;6.17;4.77;;;8.40;99.90;;;;;;4940895;29;20192;-95
2021/01/01 05:55:02;;;;;;;6.83;4.17;;;8.30;99.90;;;;;;4937858;29;20221;-95
2021/01/01 05:57:38;;;;;;;5.80;3.70;;;8.30;99.90;;;;;;4936704;29;20205;-96
2021/01/01 06:00:12;;;;;;;3.60;3.03;;;8.30;99.90;;;;;;4938006;29;20199;-96
2021/01/01 06:02:47;;;;;;;3.57;2.87;;;8.30;99.90;;;;;;4937920;29;20196;-94
2021/01/01 06:05:26;;;;;;;3.87;3.10;;;8.30;99.90;;;;;;4939390;29;20209;-96
2021/01/01 06:08:02;;;;;;;3.37;2.83;;;8.30;99.90;;;;;;4943450;29;20224;-96
2021/01/01 06:10:42;;;;;;;3.67;3.03;;;8.30;99.90;;;;;;4945475;29;20244;-96
2021/01/01 06:13:19;;;;;;;4.70;3.43;;;8.30;99.90;;;;;;4925903;29;20209;-96
2021/01/01 06:16:25;;;;;;;6.00;3.37;;;8.30;99.90;;;;;;4943151;28;20195;-96
2021/01/01 06:19:06;;;;;;;4.93;3.60;;;8.20;99.90;;;;;;4942442;29;20196;-95
2021/01/01 06:21:44;;;;;;;8.20;5.57;;;8.20;99.90;;;;;;4940852;29;20202;-94
2021/01/01 06:24:20;;;;;;;6.83;4.90;;;8.20;99.90;;;;;;4954098;29;20217;-96
2021/01/01 06:26:51;;;;;;;8.33;4.80;;;8.20;99.90;;;;;;4938647;29;20587;-95
2021/01/01 06:29:22;;;;;;;6.47;4.70;;;8.20;99.90;;;;;;4933954;29;20336;-95
2021/01/01 06:31:54;;;;;;;7.83;4.33;;;8.20;99.90;;;;;;4935319;29;20196;-94
2021/01/01 06:34:33;;;;;;;6.87;4.10;;;8.20;99.90;;;;;;4942964;29;20194;-95
2021/01/01 06:37:04;;;;;;;4.93;4.00;;;8.20;99.90;;;;;;4936841;29;20205;-96
2021/01/01 06:39:43;;;;;;;4.37;3.93;;;8.10;99.90;;;;;;4934319;29;20245;-96
2021/01/01 07:47:55;;;;;;;3.67;2.70;;;7.50;99.90;;;;;;5341383;23;20251;-96
2021/01/01 07:56:13;;;;;;;4.50;3.00;;;7.50;99.90;;;;;;5880182;23;20218;-96
2021/01/01 10:27:07;;;;;;;3.80;2.10;;;7.30;99.90;;;;;;4936383;29;20248;-96
2021/01/01 10:29:39;;;;;;;2.63;2.00;;;7.20;99.90;;;;;;4942594;29;20202;-96
2021/01/01 10:32:22;;;;;;;3.07;2.30;;;7.20;99.90;;;;;;4936831;29;20211;-96
2021/01/01 10:34:57;;;;;;;2.30;1.80;;;7.10;99.90;;;;;;4939078;29;20220;-96
2021/01/01 10:37:32;;;;;;;3.87;2.10;;;7.10;99.90;;;;;;4939157;29;20272;-96
2021/01/01 10:40:05;;;;;;;2.30;1.97;;;7.20;99.90;;;;;;4939344;29;20244;-96
2021/01/01 10:42:39;;;;;;;3.13;2.10;;;7.20;99.90;;;;;;4937716;29;20275;-96
2021/01/01 10:45:19;;;;;;;2.20;1.77;;;7.20;99.90;;;;;;4945094;29;20215;-96
2021/01/01 10:47:52;;;;;;;2.13;1.80;;;7.30;99.90;;;;;;4955294;29;20242;-96
2021/01/01 10:50:24;;;;;;;2.30;1.90;;;7.30;99.90;;;;;;4958806;29;20252;-94
2021/01/01 12:20:39;;;;;;;1.60;0.90;;;7.60;99.90;;;;;;4947680;28;20208;-96
2021/01/01 12:23:17;;;;;;;1.40;1.00;;;7.70;99.90;;;;;;4983931;28;20218;-96
2021/01/01 12:25:48;;;;;;;1.17;0.90;;;7.70;99.90;;;;;;4967513;28;20200;-96
2021/01/01 12:28:22;;;;;;;1.20;0.70;;;7.70;99.90;;;;;;4972382;28;20247;-96
2021/01/01 12:30:57;;;;;;;0.87;0.80;;;7.70;99.90;;;;;;4976569;28;20299;-96
2021/01/01 12:33:34;;;;;;;1.10;0.77;;;7.80;99.90;;;;;;4973650;28;20199;-96
2021/01/01 12:36:05;;;;;;;1.70;0.80;;;7.80;99.90;;;;;;4972112;28;20208;-96
2021/01/01 12:38:37;;;;;;;1.10;0.80;;;7.70;99.90;;;;;;4965265;28;20355;-96
2021/01/01 12:41:10;;;;;;;0.90;0.70;;;7.80;99.90;;;;;;4967898;28;20213;-96
2021/01/01 12:43:41;;;;;;;1.10;0.70;;;7.80;99.90;;;;;;4958678;28;20207;-96
2021/01/01 12:46:15;;;;;;;0.87;0.73;;;7.80;99.90;;;;;;4966854;28;20200;-96
2021/01/01 12:48:46;;;;;;;1.13;0.90;;;7.70;99.90;;;;;;4968324;28;20237;-96
2021/01/01 12:51:17;;;;;;;1.10;0.80;;;7.80;99.90;;;;;;4969517;28;20753;-96
2021/01/01 12:53:51;;;;;;;2.23;0.70;;;7.80;99.90;;;;;;4968594;29;20212;-96
2021/01/01 12:56:24;;;;;;;1.27;0.80;;;7.80;99.90;;;;;;4975245;28;20223;-96
2021/01/01 13:28:38;;;;;;;2.07;1.40;;;7.80;99.90;;;;;;5415207;23;20232;-96
2021/01/01 13:31:10;;;;;;;1.77;1.30;;;7.70;99.90;;;;;;4951200;29;20235;-96
2021/01/01 13:33:41;;;;;;;1.93;1.53;;;7.70;99.90;;;;;;4950219;29;20244;-96
2021/01/01 13:36:17;;;;;;;3.07;1.53;;;7.70;99.90;;;;;;4948807;29;20283;-96
2021/01/01 13:38:49;;;;;;;1.83;1.43;;;7.70;99.90;;;;;;4946645;29;20299;-96
2021/01/01 13:41:23;;;;;;;1.83;1.27;;;7.70;99.90;;;;;;4943038;29;20281;-96
2021/01/01 13:43:55;;;;;;;1.13;1.03;;;7.70;99.90;;;;;;4950557;29;20218;-96
2021/01/01 13:46:28;;;;;;;1.53;1.00;;;7.70;99.90;;;;;;4948278;29;20348;-96
2021/01/01 13:48:59;;;;;;;1.87;1.10;;;7.70;99.90;;;;;;4953287;29;20210;-96
2021/01/01 13:51:34;;;;;;;1.53;1.00;;;7.70;99.90;;;;;;4955998;29;20199;-96
2021/01/01 13:54:07;;;;;;;1.40;1.07;;;7.70;99.90;;;;;;4952203;29;20219;-96
2021/01/01 13:56:40;;;;;;;1.60;1.40;;;7.70;99.90;;;;;;4942899;29;20656;-96
2021/01/01 13:59:13;;;;;;;1.87;1.33;;;7.60;99.90;;;;;;4948001;28;20234;-96
2021/01/01 14:01:45;;;;;;;1.63;1.30;;;7.60;99.90;;;;;;4941760;29;20275;-96
2021/01/01 14:04:16;;;;;;;1.80;1.40;;;7.60;99.90;;;;;;4950492;29;20269;-96
2021/01/01 14:06:47;;;;;;;2.10;1.53;;;7.60;99.90;;;;;;4947801;28;20246;-96
2021/01/01 14:09:20;;;;;;;1.43;1.33;;;7.60;99.90;;;;;;4950847;29;20200;-96
2021/01/01 14:11:55;;;;;;;2.90;1.43;;;7.60;99.90;;;;;;4948012;29;20197;-96
2021/01/01 14:17:16;;;;;;;2.83;1.40;;;7.50;99.90;;;;;;4949737;29;20207;-96
2021/01/01 14:19:46;;;;;;;1.97;1.47;;;7.60;99.90;;;;;;4944869;29;20276;-96
2021/01/01 14:22:19;;;;;;;3.40;1.90;;;7.60;99.90;;;;;;4949251;29;20200;-96
2021/01/01 14:24:51;;;;;;;1.80;1.60;;;7.60;99.90;;;;;;4947888;29;20674;-96
2021/01/01 14:27:24;;;;;;;1.50;1.20;;;7.50;99.90;;;;;;4946324;29;20278;-96
2021/01/01 14:29:57;;;;;;;2.47;1.40;;;7.50;99.90;;;;;;4945846;29;20211;-96
2021/01/01 14:32:28;;;;;;;2.17;1.30;;;7.50;99.90;;;;;;4946691;29;20254;-96
2021/01/01 14:34:59;;;;;;;0.80;0.80;;;7.50;99.90;;;;;;4946106;29;20219;-96
2021/01/01 14:37:31;;;;;;;0.97;0.77;;;7.50;99.90;;;;;;4944676;29;20221;-96
2021/01/01 14:40:04;;;;;;;1.77;0.60;;;7.40;99.90;;;;;;4945975;29;20218;-96
2021/01/01 14:42:38;;;;;;;1.07;0.60;;;7.40;99.90;;;;;;4948388;29;20211;-96
2021/01/01 14:45:12;;;;;;;0.90;0.77;;;7.50;99.90;;;;;;4947586;29;20221;-96
2021/01/01 14:47:45;;;;;;;1.27;0.73;;;7.50;99.90;;;;;;4928491;29;20237;-96
2021/01/01 14:50:17;;;;;;;0.50;0.50;;;7.50;99.90;;;;;;4946585;29;20476;-96
2021/01/01 14:52:51;;;;;;;1.00;0.50;;;7.50;99.90;;;;;;4946725;29;20206;-95
2021/01/01 14:55:22;;;;;;;5.40;0.70;;;7.50;99.90;;;;;;4945407;29;20214;-96
2021/01/01 14:57:53;;;;;;;0.50;0.40;;;7.50;99.90;;;;;;4946077;29;20212;-96
2021/01/01 15:00:27;;;;;;;0.40;0.40;;;7.50;99.90;;;;;;4945661;29;20203;-95
2021/01/01 15:02:57;;;;;;;0.40;0.40;;;7.50;99.90;;;;;;4943846;29;20236;-96
2021/01/01 15:05:28;;;;;;;0.60;0.50;;;7.50;99.90;;;;;;4945069;29;20621;-95
2021/01/01 15:08:00;;;;;;;0.57;0.50;;;7.60;99.90;;;;;;4945344;28;20266;-96
2021/01/01 15:10:31;;;;;;;1.07;0.50;;;7.60;99.90;;;;;;4945822;29;20243;-96
2021/01/01 15:13:03;;;;;;;0.40;0.40;;;7.50;99.90;;;;;;4950128;29;20280;-96
2021/01/01 15:15:35;;;;;;;0.47;0.40;;;7.50;99.90;;;;;;4952258;28;20195;-96
2021/01/01 15:26:05;;;;;;;1.13;0.40;;;7.60;99.90;;;;;;5186602;23;20301;-96
2021/01/01 15:31:22;;;;;;;0.67;0.60;;;7.60;99.90;;;;;;5076385;23;20226;-96
2021/01/01 15:33:56;;;;;;;2.47;0.50;;;7.70;99.90;;;;;;4971467;28;20206;-96
2021/01/01 15:47:38;;;;;;;0.67;0.40;;;7.60;99.90;;;;;;5951626;23;20257;-96
2021/01/01 15:50:12;;;;;;;0.40;0.40;;;7.50;99.90;;;;;;4966172;28;20210;-96
2021/01/01 15:52:42;;;;;;;1.83;0.40;;;7.70;99.90;;;;;;4963093;28;20210;-96
2021/01/01 15:55:14;;;;;;;0.63;0.50;;;7.60;99.90;;;;;;4965719;28;20302;-96
2021/01/01 15:57:45;;;;;;;0.40;0.30;;;7.70;99.90;;;;;;4954351;28;20214;-96
2021/01/01 16:00:18;;;;;;;0.97;0.60;;;7.70;99.90;;;;;;4948243;28;20222;-96
2021/01/01 16:02:51;;;;;;;1.10;0.60;;;7.70;99.90;;;;;;4955673;28;20228;-96
2021/01/01 16:05:22;;;;;;;0.90;0.50;;;7.70;99.90;;;;;;4962106;28;20192;-96
2021/01/01 16:07:56;;;;;;;0.67;0.63;;;7.70;99.90;;;;;;4958263;28;20219;-96
2021/01/01 17:15:02;;;;;;;1.10;0.50;;;8.10;99.90;;;;;;4927435;29;20260;-95
2021/01/01 17:17:36;;;;;;;0.20;0.20;;;8.20;99.90;;;;;;4925468;29;20249;-96
2021/01/01 17:20:09;;;;;;;0.40;0.30;;;8.10;99.90;;;;;;4966245;23;20244;-96
2021/01/01 17:22:42;;;;;;;0.50;0.30;;;8.10;99.90;;;;;;4933562;29;20204;-96
2021/01/01 17:30:36;;;;;;;1.13;0.27;;;8.20;99.90;;;;;;5807288;23;20258;-96
2021/01/01 17:33:09;;;;;;;0.83;0.50;;;8.20;99.90;;;;;;4954460;29;20227;-96
2021/01/01 17:38:23;;;;;;;0.30;0.30;;;8.20;99.90;;;;;;5074090;23;20267;-96
2021/01/01 17:48:59;;;;;;;0.30;0.30;;;8.30;99.90;;;;;;5277497;23;20279;-96
2021/01/01 17:51:38;;;;;;;0.30;0.30;;;8.40;99.90;;;;;;5073232;23;20231;-96
2021/01/01 17:54:17;;;;;;;0.40;0.30;;;8.40;99.90;;;;;;4971139;28;20199;-94
2021/01/01 17:56:50;;;;;;;0.30;0.30;;;8.40;99.90;;;;;;4967713;28;20213;-96
2021/01/01 17:59:22;;;;;;;1.10;0.30;;;8.40;99.90;;;;;;4967766;28;20235;-96
2021/01/01 18:01:56;;;;;;;0.30;0.20;;;8.50;99.90;;;;;;4973343;28;20192;-95
2021/01/01 18:04:35;;;;;;;1.93;0.33;;;8.50;99.90;;;;;;5331096;23;20199;-96
2021/01/01 18:15:00;;;;;;;0.40;0.40;;;8.60;99.90;;;;;;4950286;23;20263;-96
2021/01/01 18:17:35;;;;;;;0.60;0.60;;;8.60;99.90;;;;;;5290822;23;20249;-96
2021/01/01 18:20:12;;;;;;;1.00;0.90;;;8.60;99.90;;;;;;4947784;28;20223;-96
2021/01/01 18:22:45;;;;;;;0.93;0.80;;;8.70;99.90;;;;;;4941251;28;20216;-96
2021/01/01 18:25:20;;;;;;;0.83;0.60;;;8.70;99.90;;;;;;4940897;29;20212;-95
2021/01/01 18:27:52;;;;;;;0.97;0.70;;;8.80;99.90;;;;;;4943656;29;20243;-96
2021/01/01 18:30:32;;;;;;;1.03;0.70;;;8.90;99.90;;;;;;4950860;28;20218;-96
2021/01/01 18:41:17;;;;;;;0.77;0.77;;;9.20;99.90;;;;;;5097131;23;20240;-96
2021/01/01 18:46:30;;;;;;;1.27;0.83;;;9.20;99.90;;;;;;5682117;23;20662;-95
2021/01/01 18:49:02;;;;;;;1.63;1.00;;;9.30;99.90;;;;;;4979042;28;20258;-96
2021/01/01 19:00:19;;;;;;;1.57;0.87;;;9.40;99.90;;;;;;4974004;28;20261;-95
2021/01/01 19:06:23;;;;;;;1.93;0.97;;;9.60;99.90;;;;;;5009085;23;20295;-96
2021/01/01 19:08:59;;;;;;;4.40;2.53;;;9.70;99.90;;;;;;4949774;29;20358;-95
2021/01/01 19:11:36;;;;;;;2.63;1.40;;;9.80;99.90;;;;;;4939655;29;20228;-96
2021/01/01 19:14:15;;;;;;;3.97;1.97;;;9.90;99.90;;;;;;4943237;29;20287;-94
2021/01/01 19:16:48;;;;;;;2.10;1.90;;;9.90;99.90;;;;;;5785101;23;20206;-96
2021/01/01 19:19:23;;;;;;;2.30;1.87;;;9.90;99.90;;;;;;4941606;28;20237;-93
2021/01/01 19:22:09;;;;;;;1.87;1.50;;;9.80;99.90;;;;;;4932291;29;20201;-93
2021/01/01 19:24:58;;;;;;;1.50;1.40;;;9.80;99.90;;;;;;4932086;29;20209;-93
2021/01/01 19:27:48;;;;;;;0.93;0.57;;;9.90;99.90;;;;;;4932869;29;20231;-93
2021/01/01 19:30:25;;;;;;;1.40;0.80;;;9.90;99.90;;;;;;4939028;29;20212;-92
2021/01/01 19:33:35;;;;;;;1.00;0.90;;;10.00;99.90;;;;;;4940662;28;20212;-94
2021/01/01 19:37:07;;;;;;;0.80;0.67;;;10.20;99.90;;;;;;4940098;29;20220;-94
2021/01/01 19:40:14;;;;;;;1.73;0.60;;;10.30;99.90;;;;;;4931148;29;20263;-92
2021/01/01 19:43:08;;;;;;;1.37;0.50;;;10.40;99.90;;;;;;4934504;29;20216;-92
2021/01/01 19:46:02;;;;;;;1.53;0.70;;;10.50;99.90;;;;;;4932583;29;20256;-94
2021/01/01 19:49:12;;;;;;;0.57;0.53;;;10.50;99.90;;;;;;4928889;28;20671;-90
2021/01/01 19:52:08;;;;;;;0.60;0.50;;;10.60;99.90;;;;;;4932244;29;20262;-95
2021/01/01 19:55:02;;;;;;;0.77;0.50;;;10.70;99.90;;;;;;4933762;29;20204;-95
2021/01/01 19:57:57;;;;;;;1.70;0.50;;;10.80;99.90;;;;;;4930096;29;20248;-93
2021/01/01 20:00:46;;;;;;;1.60;0.30;;;10.90;99.90;;;;;;4934177;29;20641;-95
2021/01/01 20:03:20;;;;;;;0.60;0.50;;;11.00;99.90;;;;;;4926151;29;20212;-96
2021/01/01 20:05:54;;;;;;;1.10;0.53;;;10.90;99.90;;;;;;4933329;29;20264;-96
2021/01/01 20:08:36;;;;;;;0.40;0.40;;;11.00;99.90;;;;;;4932385;29;20747;-96
2021/01/01 20:11:08;;;;;;;0.80;0.50;;;10.80;99.90;;;;;;4939285;29;20208;-96
2021/01/01 20:13:44;;;;;;;0.70;0.37;;;10.90;99.90;;;;;;4931222;28;20205;-95
2021/01/01 20:16:15;;;;;;;0.40;0.37;;;10.80;99.90;;;;;;4930819;29;20267;-95
2021/01/01 20:18:49;;;;;;;0.40;0.40;;;10.80;99.90;;;;;;4937205;29;20566;-96
2021/01/01 20:21:28;;;;;;;1.43;0.63;;;10.90;99.90;;;;;;4933593;29;20231;-95
2021/01/01 20:24:04;;;;;;;1.07;0.53;;;10.90;99.90;;;;;;4937131;29;20627;-95
2021/01/01 20:26:40;;;;;;;1.80;0.43;;;11.00;99.90;;;;;;4939531;28;20215;-96
2021/01/01 20:29:18;;;;;;;0.30;0.30;;;11.10;99.90;;;;;;4948218;28;20215;-96
2021/01/01 20:32:00;;;;;;;0.30;0.30;;;11.10;99.90;;;;;;4943753;28;20240;-96
2021/01/01 20:34:42;;;;;;;0.90;0.40;;;11.10;99.90;;;;;;4935441;29;20259;-96
2021/01/01 20:37:29;;;;;;;0.30;0.20;;;11.20;99.90;;;;;;4935904;29;20240;-96
2021/01/01 20:40:17;;;;;;;0.47;0.20;;;11.10;99.90;;;;;;4934373;29;20252;-96
2021/01/01 20:43:23;;;;;;;0.60;0.33;;;11.10;99.90;;;;;;4939398;29;20701;-95
2021/01/01 20:49:55;;;;;;;0.30;0.30;;;11.10;99.90;;;;;;4934089;29;20650;-94
2021/01/01 20:55:45;;;;;;;0.40;0.40;;;11.20;99.90;;;;;;4912658;29;20205;-96
2021/01/01 20:58:23;;;;;;;0.20;0.20;;;11.20;99.90;;;;;;4941129;29;20220;-96
2021/01/01 21:00:55;;;;;;;1.07;0.33;;;11.20;99.90;;;;;;4952477;28;20228;-96
2021/01/01 21:03:29;;;;;;;1.20;0.50;;;11.20;99.90;;;;;;4936732;29;20229;-96
2021/01/01 21:06:00;;;;;;;0.20;0.20;;;11.30;99.90;;;;;;4943735;28;20205;-96
2021/01/01 21:09:03;;;;;;;0.77;0.43;;;11.20;99.90;;;;;;4951121;28;20253;-96
2021/01/01 21:22:39;;;;;;;0.40;0.30;;;11.20;99.90;;;;;;4960909;28;20227;-93
2021/01/01 21:25:44;;;;;;;0.40;0.40;;;11.10;99.90;;;;;;4959298;29;20215;-94
2021/01/01 21:28:33;;;;;;;2.90;0.50;;;11.10;99.90;;;;;;4955276;29;20232;-92
2021/01/01 21:32:03;;;;;;;0.40;0.40;;;11.10;99.90;;;;;;4953290;29;20197;-94
2021/01/01 21:35:03;;;;;;;1.03;0.50;;;11.00;99.90;;;;;;4931732;29;20217;-93
2021/01/01 21:38:15;;;;;;;0.30;0.30;;;11.00;99.90;;;;;;4915620;29;20209;-94
2021/01/01 21:41:10;;;;;;;1.23;0.57;;;11.00;99.90;;;;;;4954584;28;20201;-94
2021/01/01 22:08:33;;;;;;;3.60;2.20;;;10.50;99.90;;;;;;4932187;29;20244;-95
2021/01/01 22:11:04;;;;;;;2.10;1.40;;;10.50;99.90;;;;;;4943110;29;20208;-95
2021/01/01 22:13:43;;;;;;;4.40;2.50;;;10.40;99.90;;;;;;4940110;29;20267;-94
2021/01/01 22:16:19;;;;;;;2.87;2.67;;;10.30;99.90;;;;;;4932924;29;20218;-94
2021/01/01 22:18:50;;;;;;;2.50;2.30;;;10.30;99.90;;;;;;4933618;29;20267;-91
2021/01/01 22:21:25;;;;;;;2.80;2.50;;;10.30;99.90;;;;;;4936083;29;20197;-96
2021/01/01 22:23:59;;;;;;;2.93;1.80;;;10.30;99.90;;;;;;4939065;29;20208;-96
2021/01/01 22:26:35;;;;;;;1.40;1.30;;;10.30;99.90;;;;;;4943727;29;20494;-94
2021/01/01 22:31:48;;;;;;;1.30;1.20;;;10.30;99.90;;;;;;5226177;23;20306;-95
2021/01/01 22:34:34;;;;;;;1.47;1.10;;;10.30;99.90;;;;;;4949753;29;20200;-94
2021/01/01 22:37:06;;;;;;;1.83;1.53;;;10.30;99.90;;;;;;4950645;29;20239;-93
2021/01/01 22:39:45;;;;;;;7.23;2.37;;;10.20;99.90;;;;;;4946506;29;20249;-95
2021/01/01 22:42:17;;;;;;;4.13;1.97;;;10.20;99.90;;;;;;4954830;29;20268;-96
2021/01/01 22:44:47;;;;;;;1.90;1.30;;;10.30;99.90;;;;;;4958027;29;20261;-96
2021/01/01 22:47:22;;;;;;;2.47;1.03;;;10.30;99.90;;;;;;5195443;23;20254;-96
2021/01/01 22:49:55;;;;;;;2.97;1.53;;;10.10;99.90;;;;;;4948299;28;20208;-96
2021/01/01 23:11:16;;;;;;;5.57;1.30;;;9.50;99.90;;;;;;4932682;29;20577;-96
2021/01/01 23:13:50;;;;;;;1.87;1.20;;;9.50;99.90;;;;;;4926475;28;20215;-96
2021/01/01 23:16:22;;;;;;;2.67;1.37;;;9.70;99.90;;;;;;4934449;29;20209;-96
2021/01/01 23:18:56;;;;;;;1.40;1.20;;;9.70;99.90;;;;;;4929821;29;20215;-95
2021/01/01 23:21:31;;;;;;;3.27;1.73;;;9.80;99.90;;;;;;4925851;29;20201;-94
2021/01/01 23:24:07;;;;;;;3.13;1.30;;;9.90;99.90;;;;;;4931696;29;20223;-95
2021/01/01 23:26:45;;;;;;;1.80;1.00;;;9.90;99.90;;;;;;4925719;29;20252;-93
2021/01/01 23:29:29;;;;;;;2.43;1.20;;;9.90;99.90;;;;;;4930383;29;20259;-96
2021/01/01 23:32:34;;;;;;;1.97;1.07;;;9.90;99.90;;;;;;4928943;29;20232;-95
2021/01/01 23:35:08;;;;;;;1.93;1.00;;;10.00;99.90;;;;;;5097923;23;20214;-94
2021/01/01 23:37:53;;;;;;;1.43;0.97;;;10.00;99.90;;;;;;4939002;29;20331;-94
2021/01/01 23:40:38;;;;;;;1.80;0.80;;;10.00;99.90;;;;;;4943344;29;20277;-95
2021/01/01 23:48:41;;;;;;;2.50;0.80;;;9.90;99.90;;;;;;5065372;23;10002025;-91
2021/01/01 23:56:32;;;;;;;1.40;0.50;;;9.90;99.90;;;;;;4927203;29;20268;-95
2021/01/01 23:59:12;;;;;;;2.40;0.60;;;9.80;99.90;;;;;;4945294;23;20193;-92
